createdAt,value
2018-05-27T00:02:08.425Z,9.13
2018-05-27T00:04:36.712Z,9.70
2018-05-27T00:07:05.043Z,9.07
2018-05-27T00:09:33.375Z,8.97
2018-05-27T00:12:01.638Z,8.67
2018-05-27T00:14:29.955Z,8.27
2018-05-27T00:16:58.214Z,8.67
2018-05-27T00:19:27.965Z,8.57
2018-05-27T00:21:56.245Z,9.30
2018-05-27T00:24:24.494Z,9.50
2018-05-27T00:26:53.537Z,9.60
2018-05-27T00:29:21.795Z,9.10
2018-05-27T00:31:50.072Z,8.20
2018-05-27T00:34:18.328Z,9.70
2018-05-27T00:36:46.620Z,8.70
2018-05-27T00:39:14.878Z,10.13
2018-05-27T00:41:43.322Z,11.93
2018-05-27T00:44:11.795Z,9.57
2018-05-27T00:46:40.280Z,10.07
2018-05-27T00:49:10.095Z,12.10
2018-05-27T00:51:38.521Z,8.60
2018-05-27T00:54:06.801Z,8.27
2018-05-27T00:56:35.051Z,9.40
2018-05-27T00:59:03.299Z,9.43
2018-05-27T01:01:32.418Z,7.97
2018-05-27T01:04:00.666Z,8.40
2018-05-27T01:06:28.922Z,7.73
2018-05-27T01:08:57.182Z,9.00
2018-05-27T01:11:25.430Z,9.33
2018-05-27T01:13:55.637Z,9.63
2018-05-27T01:16:24.007Z,9.03
2018-05-27T01:18:53.027Z,9.90
2018-05-27T01:21:21.309Z,8.07
2018-05-27T01:23:51.111Z,8.10
2018-05-27T01:26:19.487Z,11.73
2018-05-27T01:28:47.801Z,9.47
2018-05-27T01:31:16.058Z,12.43
2018-05-27T01:33:44.335Z,13.07
2018-05-27T01:36:12.609Z,8.37
2018-05-27T01:38:40.901Z,10.63
2018-05-27T01:41:09.130Z,8.93
2018-05-27T01:43:37.395Z,9.70
2018-05-27T01:46:05.667Z,10.63
2018-05-27T01:48:37.315Z,10.67
2018-05-27T01:51:06.337Z,9.80
2018-05-27T01:53:34.711Z,9.53
2018-05-27T01:56:02.994Z,9.23
2018-05-27T01:58:31.360Z,11.83
2018-05-27T02:00:59.707Z,14.40
2018-05-27T02:03:28.106Z,10.60
2018-05-27T02:05:56.378Z,10.13
2018-05-27T02:08:24.678Z,9.47
2018-05-27T02:10:53.017Z,10.83
2018-05-27T02:13:21.319Z,9.67
2018-05-27T02:15:49.602Z,10.50
2018-05-27T02:18:17.870Z,11.30
2018-05-27T02:20:46.139Z,11.67
2018-05-27T02:23:14.402Z,12.67
2018-05-27T02:25:42.674Z,10.17
2018-05-27T02:28:10.932Z,11.00
2018-05-27T02:30:40.067Z,10.73
2018-05-27T02:33:08.338Z,10.53
2018-05-27T02:35:36.616Z,10.53
2018-05-27T02:38:04.951Z,10.73
2018-05-27T02:40:34.023Z,11.70
2018-05-27T02:43:02.287Z,10.17
2018-05-27T02:45:30.554Z,13.33
2018-05-27T02:47:58.922Z,11.53
2018-05-27T02:50:27.342Z,10.87
2018-05-27T02:52:55.617Z,10.70
2018-05-27T02:55:23.902Z,10.47
2018-05-27T02:57:52.991Z,9.83
2018-05-27T03:00:21.390Z,13.07
2018-05-27T03:02:49.731Z,11.13
2018-05-27T03:05:18.007Z,10.10
2018-05-27T03:07:46.283Z,10.37
2018-05-27T03:10:14.931Z,11.13
2018-05-27T03:12:43.212Z,11.17
2018-05-27T03:15:11.475Z,11.93
2018-05-27T03:17:39.757Z,10.90
2018-05-27T03:20:08.034Z,12.50
2018-05-27T03:22:36.322Z,11.27
2018-05-27T03:25:04.641Z,11.13
2018-05-27T03:27:32.943Z,10.30
2018-05-27T03:30:01.309Z,11.10
2018-05-27T03:32:31.147Z,11.07
2018-05-27T03:34:59.402Z,13.37
2018-05-27T03:37:28.165Z,11.17
2018-05-27T03:39:57.206Z,11.67
2018-05-27T03:42:25.495Z,10.73
2018-05-27T03:44:53.757Z,11.77
2018-05-27T03:47:22.866Z,11.20
2018-05-27T03:49:51.126Z,11.57
2018-05-27T03:52:19.428Z,11.37
2018-05-27T03:54:47.689Z,11.07
2018-05-27T03:57:15.946Z,10.70
2018-05-27T03:59:44.232Z,12.17
2018-05-27T04:02:12.517Z,11.00
2018-05-27T04:05:02.961Z,11.33
2018-05-27T04:07:42.984Z,11.77
2018-05-27T04:10:12.764Z,11.57
2018-05-27T04:12:42.575Z,13.93
2018-05-27T04:15:13.482Z,12.73
2018-05-27T04:17:41.741Z,14.43
2018-05-27T04:20:11.026Z,15.50
2018-05-27T04:22:40.051Z,11.23
2018-05-27T04:25:08.329Z,10.53
2018-05-27T04:27:36.581Z,13.47
2018-05-27T04:30:04.977Z,10.33
2018-05-27T04:32:33.272Z,13.27
2018-05-27T04:35:01.532Z,11.73
2018-05-27T04:37:29.803Z,10.37
2018-05-27T04:39:58.219Z,11.20
2018-05-27T04:42:26.489Z,11.83
2018-05-27T04:44:54.776Z,12.10
2018-05-27T04:47:23.014Z,10.43
2018-05-27T04:49:51.330Z,9.90
2018-05-27T04:52:19.597Z,10.40
2018-05-27T04:54:47.953Z,11.90
2018-05-27T04:57:16.277Z,10.93
2018-05-27T04:59:45.415Z,15.53
2018-05-27T05:02:14.267Z,10.57
2018-05-27T05:04:43.525Z,11.17
2018-05-27T05:07:11.786Z,11.47
2018-05-27T05:09:40.050Z,11.23
2018-05-27T05:12:08.372Z,11.37
2018-05-27T05:14:36.649Z,11.80
2018-05-27T05:17:04.906Z,13.70
2018-05-27T05:19:33.310Z,12.23
2018-05-27T05:22:02.509Z,11.53
2018-05-27T05:24:30.770Z,10.87
2018-05-27T05:26:59.084Z,11.40
2018-05-27T05:29:27.358Z,12.90
2018-05-27T05:31:55.809Z,11.90
2018-05-27T05:34:24.038Z,9.77
2018-05-27T05:36:52.306Z,10.60
2018-05-27T05:39:20.595Z,11.60
2018-05-27T05:41:49.050Z,11.70
2018-05-27T05:44:17.311Z,11.13
2018-05-27T05:46:45.602Z,10.73
2018-05-27T05:49:13.922Z,11.70
2018-05-27T05:51:42.174Z,11.60
2018-05-27T05:54:10.472Z,10.83
2018-05-27T05:56:38.729Z,10.53
2018-05-27T05:59:07.000Z,10.03
2018-05-27T06:01:35.326Z,14.87
2018-05-27T06:04:05.716Z,9.77
2018-05-27T06:06:34.038Z,11.63
2018-05-27T06:09:02.314Z,14.23
2018-05-27T06:11:30.667Z,10.77
2018-05-27T06:13:59.091Z,10.83
2018-05-27T06:16:28.112Z,10.90
2018-05-27T06:18:56.367Z,10.97
2018-05-27T06:21:24.650Z,10.03
2018-05-27T06:23:53.007Z,9.20
2018-05-27T06:26:21.308Z,10.10
2018-05-27T06:28:49.588Z,9.63
2018-05-27T06:31:18.030Z,9.53
2018-05-27T06:33:46.326Z,11.03
2018-05-27T06:36:14.592Z,10.17
2018-05-27T06:38:42.915Z,8.97
2018-05-27T06:41:11.159Z,9.47
2018-05-27T06:43:39.422Z,10.00
2018-05-27T06:46:07.817Z,10.50
2018-05-27T06:48:36.087Z,10.80
2018-05-27T06:51:04.413Z,10.87
2018-05-27T06:53:32.829Z,10.50
2018-05-27T06:56:01.118Z,9.80
2018-05-27T06:58:29.387Z,10.20
2018-05-27T07:00:57.630Z,9.97
2018-05-27T07:03:26.794Z,10.13
2018-05-27T07:05:55.090Z,9.57
2018-05-27T07:08:24.154Z,10.13
2018-05-27T07:10:52.414Z,9.47
2018-05-27T07:13:20.693Z,9.80
2018-05-27T07:15:48.978Z,9.50
2018-05-27T07:18:17.238Z,11.07
2018-05-27T07:20:45.535Z,9.57
2018-05-27T07:23:13.799Z,12.50
2018-05-27T07:25:43.611Z,9.03
2018-05-27T07:28:11.843Z,10.63
2018-05-27T07:30:44.826Z,9.83
2018-05-27T07:33:13.102Z,12.97
2018-05-27T07:35:41.395Z,10.37
2018-05-27T07:38:09.654Z,11.67
2018-05-27T07:40:37.983Z,10.10
2018-05-27T07:43:06.222Z,9.40
2018-05-27T07:45:34.548Z,10.73
2018-05-27T07:48:02.906Z,10.53
2018-05-27T07:50:31.206Z,9.97
2018-05-27T07:53:00.232Z,9.80
2018-05-27T07:55:28.657Z,9.13
2018-05-27T07:57:57.715Z,10.23
2018-05-27T08:00:25.987Z,9.60
2018-05-27T08:02:54.395Z,10.23
2018-05-27T08:05:23.437Z,9.63
2018-05-27T08:07:51.742Z,9.53
2018-05-27T08:10:19.987Z,8.97
2018-05-27T08:12:48.263Z,8.27
2018-05-27T08:15:16.535Z,9.77
2018-05-27T08:17:44.919Z,9.27
2018-05-27T08:20:13.211Z,9.13
2018-05-27T08:22:41.522Z,8.80
2018-05-27T08:25:09.789Z,10.53
2018-05-27T08:27:38.042Z,10.13
2018-05-27T08:30:06.326Z,12.03
2018-05-27T08:32:34.779Z,11.47
2018-05-27T08:35:03.836Z,8.60
2018-05-27T08:37:36.008Z,8.70
2018-05-27T08:40:04.240Z,9.27
2018-05-27T08:42:32.549Z,9.47
2018-05-27T08:45:00.815Z,9.53
2018-05-27T08:47:30.590Z,9.13
2018-05-27T08:49:58.958Z,8.43
2018-05-27T08:52:27.247Z,9.93
2018-05-27T08:54:55.775Z,7.97
2018-05-27T08:57:24.188Z,10.87
2018-05-27T08:59:52.375Z,9.30
2018-05-27T09:02:20.630Z,9.27
2018-05-27T09:04:48.906Z,9.47
2018-05-27T09:07:17.182Z,8.77
2018-05-27T09:09:46.201Z,8.80
2018-05-27T09:12:14.486Z,9.07
2018-05-27T09:14:42.832Z,9.37
2018-05-27T09:17:11.065Z,7.70
2018-05-27T09:19:39.341Z,12.80
2018-05-27T09:22:07.614Z,8.67
2018-05-27T09:24:37.863Z,8.40
2018-05-27T09:27:06.871Z,9.60
2018-05-27T09:29:35.144Z,10.00
2018-05-27T09:32:03.407Z,10.53
2018-05-27T09:34:35.995Z,9.30
2018-05-27T09:37:05.185Z,9.17
2018-05-27T09:39:34.234Z,11.40
2018-05-27T09:42:02.513Z,11.87
2018-05-27T09:44:31.595Z,9.57
2018-05-27T09:46:59.837Z,9.83
2018-05-27T09:49:28.111Z,9.43
2018-05-27T09:51:56.379Z,9.37
2018-05-27T09:54:25.420Z,9.40
2018-05-27T09:56:53.755Z,8.93
2018-05-27T09:59:22.010Z,9.43
2018-05-27T10:01:51.197Z,10.57
2018-05-27T10:04:19.620Z,8.50
2018-05-27T10:06:47.890Z,10.07
2018-05-27T10:09:16.139Z,10.03
2018-05-27T10:11:45.232Z,8.80
2018-05-27T10:14:13.450Z,11.57
2018-05-27T10:16:41.718Z,8.90
2018-05-27T10:19:09.972Z,10.83
2018-05-27T10:21:38.221Z,8.57
2018-05-27T10:24:06.695Z,8.53
2018-05-27T10:26:35.714Z,9.00
2018-05-27T10:29:03.989Z,8.77
2018-05-27T10:31:33.091Z,8.00
2018-05-27T10:34:01.450Z,8.30
2018-05-27T10:36:32.024Z,6.43
2018-05-27T10:39:00.278Z,11.70
2018-05-27T10:41:28.558Z,8.80
2018-05-27T10:43:56.851Z,7.63
2018-05-27T10:46:25.119Z,8.03
2018-05-27T10:48:53.366Z,7.30
2018-05-27T10:51:22.377Z,8.30
2018-05-27T10:53:50.875Z,7.80
2018-05-27T10:56:19.225Z,7.60
2018-05-27T10:58:47.490Z,8.10
2018-05-27T11:01:15.965Z,8.00
2018-05-27T11:03:44.239Z,8.40
2018-05-27T11:06:12.527Z,9.33
2018-05-27T11:08:40.815Z,9.13
2018-05-27T11:11:09.225Z,8.23
2018-05-27T11:13:38.276Z,7.93
2018-05-27T11:16:06.636Z,8.10
2018-05-27T11:18:35.631Z,10.33
2018-05-27T11:21:03.893Z,8.37
2018-05-27T11:23:32.913Z,8.37
2018-05-27T11:26:01.218Z,12.60
2018-05-27T11:28:29.479Z,9.63
2018-05-27T11:30:57.764Z,10.97
2018-05-27T11:33:26.018Z,8.47
2018-05-27T11:35:54.271Z,8.63
2018-05-27T11:38:23.290Z,7.37
2018-05-27T11:40:51.543Z,8.47
2018-05-27T11:43:19.849Z,7.40
2018-05-27T11:45:48.102Z,10.00
2018-05-27T11:48:16.390Z,8.40
2018-05-27T11:50:44.695Z,7.63
2018-05-27T11:53:12.970Z,11.00
2018-05-27T11:55:41.246Z,6.93
2018-05-27T11:58:13.366Z,6.40
2018-05-27T12:00:41.619Z,5.77
2018-05-27T12:03:10.654Z,6.97
2018-05-27T12:05:38.907Z,10.40
2018-05-27T12:08:07.207Z,6.90
2018-05-27T12:10:35.462Z,6.93
2018-05-27T12:13:03.780Z,7.00
2018-05-27T12:15:32.929Z,6.63
2018-05-27T12:18:01.182Z,7.53
2018-05-27T12:20:30.231Z,6.73
2018-05-27T12:22:58.493Z,6.40
2018-05-27T12:25:26.770Z,6.27
2018-05-27T12:27:55.026Z,5.90
2018-05-27T12:30:23.283Z,7.83
2018-05-27T12:32:51.678Z,5.60
2018-05-27T12:35:19.979Z,5.90
2018-05-27T12:37:48.242Z,6.00
2018-05-27T12:40:16.710Z,5.73
2018-05-27T12:42:45.075Z,5.87
2018-05-27T12:45:13.625Z,5.97
2018-05-27T12:47:42.026Z,5.53
2018-05-27T12:50:10.419Z,6.67
2018-05-27T12:52:38.695Z,10.17
2018-05-27T12:55:07.142Z,6.30
2018-05-27T12:57:39.395Z,6.23
2018-05-27T13:00:07.670Z,6.63
2018-05-27T13:02:35.909Z,7.47
2018-05-27T13:05:04.176Z,12.20
2018-05-27T13:07:32.460Z,12.50
2018-05-27T13:10:00.763Z,11.83
2018-05-27T13:12:29.802Z,9.03
2018-05-27T13:14:58.090Z,9.80
2018-05-27T13:17:30.039Z,8.67
2018-05-27T13:19:58.314Z,10.70
2018-05-27T13:22:29.619Z,9.60
2018-05-27T13:24:57.875Z,10.77
2018-05-27T13:27:26.125Z,8.47
2018-05-27T13:29:54.395Z,10.27
2018-05-27T13:32:22.641Z,11.43
2018-05-27T13:34:50.929Z,6.40
2018-05-27T13:37:19.189Z,6.33
2018-05-27T13:39:47.509Z,7.23
2018-05-27T13:42:15.784Z,9.03
2018-05-27T13:44:44.027Z,7.33
2018-05-27T13:47:12.321Z,5.60
2018-05-27T13:49:42.338Z,5.40
2018-05-27T13:52:10.619Z,5.43
2018-05-27T13:54:38.871Z,3.30
2018-05-27T13:57:09.443Z,5.00
2018-05-27T13:59:37.695Z,6.90
2018-05-27T14:02:06.048Z,4.93
2018-05-27T14:04:35.098Z,5.60
2018-05-27T14:07:03.389Z,5.77
2018-05-27T14:09:31.753Z,4.97
2018-05-27T14:11:59.983Z,6.07
2018-05-27T14:14:28.250Z,8.13
2018-05-27T14:16:57.382Z,7.07
2018-05-27T14:19:25.801Z,8.83
2018-05-27T14:21:54.805Z,11.23
2018-05-27T14:24:23.081Z,9.07
2018-05-27T14:26:52.093Z,8.33
2018-05-27T14:29:20.464Z,8.50
2018-05-27T14:31:48.706Z,7.97
2018-05-27T14:34:16.956Z,12.20
2018-05-27T14:36:46.019Z,8.97
2018-05-27T14:39:14.289Z,10.87
2018-05-27T14:41:42.560Z,7.77
2018-05-27T14:44:10.799Z,12.20
2018-05-27T14:46:39.831Z,11.97
2018-05-27T14:49:08.086Z,9.83
2018-05-27T14:51:36.367Z,9.10
2018-05-27T14:54:05.429Z,8.03
2018-05-27T14:56:33.698Z,7.97
2018-05-27T14:59:01.967Z,9.43
2018-05-27T15:01:30.259Z,12.07
2018-05-27T15:04:00.019Z,10.20
2018-05-27T15:06:28.301Z,8.93
2018-05-27T15:08:56.572Z,7.77
2018-05-27T15:11:25.043Z,6.33
2018-05-27T15:13:53.263Z,5.33
2018-05-27T15:16:22.303Z,7.50
2018-05-27T15:18:50.582Z,6.00
2018-05-27T15:21:19.043Z,6.60
2018-05-27T15:23:47.312Z,8.63
2018-05-27T15:26:15.563Z,6.30
2018-05-27T15:28:45.380Z,5.83
2018-05-27T15:31:14.419Z,5.60
2018-05-27T15:33:42.666Z,7.23
2018-05-27T15:36:12.920Z,7.23
2018-05-27T15:38:41.212Z,11.40
2018-05-27T15:41:09.454Z,7.17
2018-05-27T15:43:37.724Z,8.00
2018-05-27T15:46:06.017Z,10.40
2018-05-27T15:48:34.295Z,6.90
2018-05-27T15:51:02.559Z,6.13
2018-05-27T15:53:30.829Z,7.43
2018-05-27T15:55:59.874Z,8.10
2018-05-27T15:58:28.123Z,9.30
2018-05-27T16:00:56.473Z,9.07
2018-05-27T16:03:24.867Z,10.37
2018-05-27T16:05:53.237Z,7.90
2018-05-27T16:08:21.571Z,9.10
2018-05-27T16:10:49.888Z,7.23
2018-05-27T16:13:18.262Z,10.07
2018-05-27T16:15:46.545Z,9.00
2018-05-27T16:18:15.558Z,11.07
2018-05-27T16:20:45.338Z,10.13
2018-05-27T16:23:13.624Z,8.30
2018-05-27T16:25:41.932Z,12.00
2018-05-27T16:28:10.196Z,9.77
2018-05-27T16:30:38.486Z,8.83
2018-05-27T16:33:06.807Z,10.00
2018-05-27T16:35:39.093Z,9.83
2018-05-27T16:38:07.372Z,8.37
2018-05-27T16:40:35.735Z,9.67
2018-05-27T16:43:04.010Z,8.63
2018-05-27T16:45:32.281Z,6.97
2018-05-27T16:48:00.575Z,9.97
2018-05-27T16:50:28.801Z,9.97
2018-05-27T16:52:57.839Z,14.73
2018-05-27T16:55:26.175Z,7.97
2018-05-27T16:57:55.222Z,9.13
2018-05-27T17:00:23.487Z,9.10
2018-05-27T17:02:51.769Z,9.23
2018-05-27T17:05:20.070Z,10.17
2018-05-27T17:07:49.834Z,8.90
2018-05-27T17:10:18.113Z,7.37
2018-05-27T17:12:46.410Z,8.97
2018-05-27T17:15:14.754Z,10.50
2018-05-27T17:17:43.229Z,10.77
2018-05-27T17:20:11.465Z,11.97
2018-05-27T17:22:39.842Z,9.87
2018-05-27T17:25:08.251Z,8.77
2018-05-27T17:27:36.541Z,8.30
2018-05-27T17:30:04.777Z,9.03
2018-05-27T17:32:33.047Z,14.43
2018-05-27T17:35:01.344Z,14.87
2018-05-27T17:37:29.629Z,13.27
2018-05-27T17:39:57.956Z,13.83
2018-05-27T17:42:26.225Z,10.67
2018-05-27T17:44:54.550Z,14.30
2018-05-27T17:47:23.000Z,8.33
2018-05-27T17:49:51.271Z,10.73
2018-05-27T17:52:19.695Z,7.60
2018-05-27T17:54:47.972Z,6.00
2018-05-27T17:57:17.029Z,8.83
2018-05-27T17:59:45.301Z,5.93
2018-05-27T18:02:13.644Z,8.80
2018-05-27T18:04:41.922Z,4.97
2018-05-27T18:07:10.248Z,7.77
2018-05-27T18:09:39.282Z,8.67
2018-05-27T18:12:07.642Z,5.67
2018-05-27T18:14:36.186Z,4.00
2018-05-27T18:17:04.423Z,4.77
2018-05-27T18:19:32.714Z,7.33
2018-05-27T18:22:00.964Z,4.27
2018-05-27T18:24:29.225Z,5.57
2018-05-27T18:26:57.497Z,6.90
2018-05-27T18:29:25.751Z,9.00
2018-05-27T18:31:54.948Z,6.73
2018-05-27T18:34:23.149Z,4.67
2018-05-27T18:36:51.402Z,7.57
2018-05-27T18:39:19.651Z,7.73
2018-05-27T18:41:47.932Z,7.27
2018-05-27T18:44:16.176Z,10.03
2018-05-27T18:46:44.481Z,8.23
2018-05-27T18:49:13.691Z,8.07
2018-05-27T18:51:42.719Z,6.53
2018-05-27T18:54:10.977Z,9.43
2018-05-27T18:56:39.315Z,6.73
2018-05-27T18:59:08.327Z,7.70
2018-05-27T19:01:37.361Z,9.10
2018-05-27T19:04:05.643Z,8.20
2018-05-27T19:06:33.947Z,9.00
2018-05-27T19:09:02.171Z,7.33
2018-05-27T19:11:30.460Z,6.90
2018-05-27T19:13:58.713Z,10.30
2018-05-27T19:16:27.028Z,7.53
2018-05-27T19:18:55.296Z,8.00
2018-05-27T19:21:23.573Z,10.60
2018-05-27T19:23:51.858Z,10.30
2018-05-27T19:26:20.116Z,7.60
2018-05-27T19:28:48.376Z,8.30
2018-05-27T19:31:16.607Z,6.67
2018-05-27T19:33:44.894Z,8.13
2018-05-27T19:36:13.963Z,6.83
2018-05-27T19:38:42.231Z,8.17
2018-05-27T19:41:10.493Z,7.90
2018-05-27T19:43:38.817Z,7.80
2018-05-27T19:46:08.591Z,9.03
2018-05-27T19:48:36.942Z,9.87
2018-05-27T19:51:05.196Z,8.77
2018-05-27T19:53:33.439Z,7.40
2018-05-27T19:56:02.462Z,9.60
2018-05-27T19:58:30.737Z,6.67
2018-05-27T20:00:59.043Z,7.40
2018-05-27T20:03:28.046Z,6.83
2018-05-27T20:05:56.313Z,8.03
2018-05-27T20:08:24.613Z,7.43
2018-05-27T20:10:53.016Z,7.27
2018-05-27T20:13:22.024Z,10.13
2018-05-27T20:15:50.304Z,10.20
2018-05-27T20:18:18.564Z,8.33
2018-05-27T20:20:47.596Z,8.30
2018-05-27T20:23:15.857Z,8.07
2018-05-27T20:25:44.181Z,9.20
2018-05-27T20:28:12.401Z,8.30
2018-05-27T20:30:41.109Z,9.73
2018-05-27T20:33:09.393Z,8.57
2018-05-27T20:35:37.743Z,7.13
2018-05-27T20:38:06.115Z,7.23
2018-05-27T20:40:35.162Z,8.53
2018-05-27T20:43:03.398Z,6.87
2018-05-27T20:45:31.677Z,7.80
2018-05-27T20:47:59.973Z,7.67
2018-05-27T20:50:28.224Z,7.33
2018-05-27T20:52:56.442Z,8.07
2018-05-27T20:55:24.663Z,8.17
2018-05-27T20:57:53.023Z,7.30
2018-05-27T21:00:21.375Z,6.73
2018-05-27T21:02:49.678Z,8.43
2018-05-27T21:05:17.939Z,10.80
2018-05-27T21:07:47.442Z,7.77
2018-05-27T21:10:16.463Z,7.30
2018-05-27T21:12:44.748Z,8.37
2018-05-27T21:15:13.179Z,6.07
2018-05-27T21:17:42.211Z,6.60
2018-05-27T21:20:10.449Z,8.63
2018-05-27T21:22:39.446Z,7.03
2018-05-27T21:25:07.781Z,7.73
2018-05-27T21:27:36.043Z,7.80
2018-05-27T21:30:04.293Z,7.87
2018-05-27T21:32:32.551Z,7.63
2018-05-27T21:35:01.598Z,7.33
2018-05-27T21:37:29.877Z,10.30
2018-05-27T21:39:58.123Z,6.20
2018-05-27T21:42:28.501Z,10.10
2018-05-27T21:44:56.961Z,6.97
2018-05-27T21:47:25.194Z,7.60
2018-05-27T21:49:53.453Z,7.70
2018-05-27T21:52:21.707Z,8.17
2018-05-27T21:54:50.795Z,7.33
2018-05-27T21:57:19.800Z,8.00
2018-05-27T21:59:48.908Z,8.83
2018-05-27T22:02:17.261Z,8.70
2018-05-27T22:04:47.066Z,7.27
2018-05-27T22:07:16.081Z,6.03
2018-05-27T22:09:45.102Z,8.60
2018-05-27T22:12:13.442Z,7.07
2018-05-27T22:14:41.739Z,7.60
2018-05-27T22:17:10.134Z,8.37
2018-05-27T22:19:38.450Z,9.60
2018-05-27T22:22:06.750Z,8.53
2018-05-27T22:24:35.762Z,8.53
2018-05-27T22:27:04.001Z,7.67
2018-05-27T22:29:32.305Z,7.73
2018-05-27T22:32:00.558Z,8.20
2018-05-27T22:34:29.678Z,8.17
2018-05-27T22:36:58.206Z,7.83
2018-05-27T22:39:26.434Z,11.00
2018-05-27T22:41:54.712Z,8.33
2018-05-27T22:44:22.940Z,8.67
2018-05-27T22:46:51.972Z,10.57
2018-05-27T22:49:20.246Z,8.17
2018-05-27T22:51:48.502Z,9.47
2018-05-27T22:54:17.519Z,11.10
2018-05-27T22:56:47.467Z,10.80
2018-05-27T22:59:15.718Z,9.57
2018-05-27T23:01:43.966Z,9.57
2018-05-27T23:04:12.220Z,8.33
2018-05-27T23:06:40.532Z,8.63
2018-05-27T23:09:08.833Z,9.10
2018-05-27T23:11:39.079Z,10.20
2018-05-27T23:14:07.331Z,12.13
2018-05-27T23:16:35.616Z,11.43
2018-05-27T23:19:04.067Z,11.50
2018-05-27T23:21:32.362Z,13.57
2018-05-27T23:24:00.932Z,9.80
2018-05-27T23:26:30.033Z,10.47
2018-05-27T23:28:58.293Z,10.73
2018-05-27T23:31:26.577Z,11.07
2018-05-27T23:33:54.856Z,12.73
2018-05-27T23:36:23.120Z,10.00
2018-05-27T23:38:51.395Z,13.50
2018-05-27T23:41:19.669Z,11.17
2018-05-27T23:43:48.022Z,11.50
2018-05-27T23:46:17.122Z,12.70
2018-05-27T23:48:45.443Z,13.43
2018-05-27T23:51:13.683Z,12.80
2018-05-27T23:53:42.002Z,15.80
2018-05-27T23:56:10.258Z,13.67
2018-05-27T23:58:38.547Z,16.63
